createdAt,value
2018-12-15T00:01:58.827Z,15.76
2018-12-15T00:04:39.371Z,15.82
2018-12-15T00:07:20.724Z,15.76
2018-12-15T00:10:01.283Z,15.77
2018-12-15T00:12:42.608Z,15.86
2018-12-15T00:15:24.188Z,16.00
2018-12-15T00:18:04.864Z,16.03
2018-12-15T00:20:45.655Z,16.05
2018-12-15T00:23:26.812Z,16.08
2018-12-15T00:26:07.343Z,16.14
2018-12-15T00:28:48.355Z,16.23
2018-12-15T00:31:28.959Z,16.36
2018-12-15T00:34:09.781Z,16.42
2018-12-15T00:36:50.671Z,16.51
2018-12-15T00:39:31.637Z,16.60
2018-12-15T00:42:12.804Z,16.72
2018-12-15T00:44:53.395Z,16.74
2018-12-15T00:47:34.712Z,16.89
2018-12-15T00:50:15.999Z,16.88
2018-12-15T00:52:57.263Z,16.96
2018-12-15T00:55:38.243Z,17.08
2018-12-15T00:58:19.510Z,17.15
2018-12-15T01:00:59.998Z,17.16
2018-12-15T01:03:41.523Z,17.39
2018-12-15T01:06:22.206Z,17.45
2018-12-15T01:09:03.468Z,17.51
2018-12-15T01:11:44.774Z,17.57
2018-12-15T01:14:25.920Z,17.70
2018-12-15T01:17:07.538Z,17.74
2018-12-15T01:19:48.481Z,17.80
2018-12-15T01:22:29.118Z,17.92
2018-12-15T01:25:10.392Z,17.93
2018-12-15T01:27:51.425Z,17.95
2018-12-15T01:30:31.910Z,17.94
2018-12-15T01:33:12.884Z,17.99
2018-12-15T01:35:53.527Z,18.10
2018-12-15T01:38:34.561Z,18.26
2018-12-15T01:41:15.587Z,18.31
2018-12-15T01:43:56.480Z,18.44
2018-12-15T01:46:37.528Z,18.42
2018-12-15T01:49:18.413Z,18.47
2018-12-15T01:51:59.460Z,18.58
2018-12-15T01:54:40.118Z,18.66
2018-12-15T01:57:20.958Z,18.80
2018-12-15T02:00:01.966Z,18.86
2018-12-15T02:02:42.524Z,18.79
2018-12-15T02:05:23.608Z,18.77
2018-12-15T02:08:04.593Z,18.80
2018-12-15T02:10:45.336Z,18.83
2018-12-15T02:13:26.128Z,18.97
2018-12-15T02:16:07.085Z,19.50
2018-12-15T02:18:47.761Z,20.27
2018-12-15T02:21:28.267Z,21.07
2018-12-15T02:24:09.388Z,21.30
2018-12-15T02:26:49.940Z,21.43
2018-12-15T02:29:30.259Z,21.43
2018-12-15T02:32:11.293Z,21.43
2018-12-15T02:34:51.966Z,21.38
2018-12-15T02:37:33.560Z,21.57
2018-12-15T02:40:14.079Z,21.89
2018-12-15T02:42:54.877Z,22.46
2018-12-15T02:45:36.648Z,22.71
2018-12-15T02:48:18.875Z,22.67
2018-12-15T02:50:59.963Z,22.53
2018-12-15T02:53:42.109Z,22.34
2018-12-15T02:56:23.393Z,22.22
2018-12-15T02:59:06.416Z,22.17
2018-12-15T03:01:47.654Z,22.08
2018-12-15T03:04:28.909Z,22.04
2018-12-15T03:07:09.928Z,21.99
2018-12-15T03:09:50.768Z,21.90
2018-12-15T03:12:31.570Z,21.95
2018-12-15T03:15:12.708Z,22.05
2018-12-15T03:17:53.949Z,22.23
2018-12-15T03:20:35.224Z,22.95
2018-12-15T03:23:15.942Z,23.42
2018-12-15T03:25:56.306Z,23.67
2018-12-15T03:28:37.444Z,23.49
2018-12-15T03:31:18.094Z,23.65
2018-12-15T03:33:59.373Z,23.57
2018-12-15T03:36:40.017Z,23.70
2018-12-15T03:39:21.063Z,23.78
2018-12-15T03:42:01.921Z,23.71
2018-12-15T03:44:42.559Z,23.71
2018-12-15T03:47:23.548Z,23.48
2018-12-15T03:50:04.178Z,23.36
2018-12-15T03:52:45.231Z,23.14
2018-12-15T04:03:39.887Z,23.20
2018-12-15T04:06:20.577Z,23.26
2018-12-15T04:09:01.454Z,23.37
2018-12-15T04:11:42.491Z,23.29
2018-12-15T04:14:23.781Z,23.18
2018-12-15T04:17:04.992Z,23.14
2018-12-15T04:19:45.733Z,23.22
2018-12-15T04:22:26.597Z,23.23
2018-12-15T04:25:07.866Z,23.28
2018-12-15T04:27:48.552Z,23.23
2018-12-15T04:30:29.133Z,23.33
2018-12-15T04:33:10.189Z,23.32
2018-12-15T04:52:05.434Z,23.53
2018-12-15T04:54:46.459Z,23.56
2018-12-15T04:57:27.703Z,23.54
2018-12-15T05:00:09.013Z,23.64
2018-12-15T05:02:50.244Z,23.76
2018-12-15T05:05:30.648Z,23.83
2018-12-15T05:08:11.648Z,23.82
2018-12-15T05:10:52.800Z,23.90
2018-12-15T05:13:34.182Z,23.87
2018-12-15T05:16:15.145Z,23.86
2018-12-15T05:18:55.736Z,24.08
2018-12-15T05:21:36.607Z,24.22
2018-12-15T05:24:17.955Z,24.25
2018-12-15T05:26:59.225Z,24.26
2018-12-15T05:29:40.505Z,24.36
2018-12-15T05:32:21.774Z,24.28
2018-12-15T05:35:03.057Z,24.27
2018-12-15T05:37:43.997Z,24.19
2018-12-15T05:40:24.767Z,24.31
2018-12-15T05:43:04.673Z,24.39
2018-12-15T05:45:45.684Z,24.64
2018-12-15T05:48:26.882Z,24.79
2018-12-15T05:51:07.840Z,25.18
2018-12-15T05:53:48.582Z,25.30
2018-12-15T05:56:29.223Z,25.51
2018-12-15T05:59:10.227Z,25.63
2018-12-15T06:01:51.077Z,25.86
2018-12-15T06:04:31.699Z,26.07
2018-12-15T06:07:12.993Z,25.94
2018-12-15T06:09:53.710Z,25.84
2018-12-15T06:12:34.582Z,25.72
2018-12-15T06:15:15.153Z,25.80
2018-12-15T06:17:56.628Z,25.88
2018-12-15T06:20:36.958Z,25.96
2018-12-15T06:23:17.765Z,26.09
2018-12-15T06:25:58.229Z,26.22
2018-12-15T06:28:38.552Z,26.40
2018-12-15T06:31:19.114Z,26.56
2018-12-15T06:33:59.514Z,26.55
2018-12-15T06:36:39.664Z,26.34
2018-12-15T06:39:19.668Z,26.08
2018-12-15T06:42:00.028Z,26.01
2018-12-15T06:44:40.574Z,25.98
2018-12-15T06:47:20.993Z,26.06
2018-12-15T06:50:01.879Z,26.08
2018-12-15T06:52:42.326Z,26.05
2018-12-15T06:55:23.103Z,26.15
2018-12-15T06:58:03.980Z,26.09
2018-12-15T07:00:44.111Z,25.95
2018-12-15T07:03:24.803Z,25.90
2018-12-15T07:06:05.043Z,25.73
2018-12-15T07:08:45.815Z,25.83
2018-12-15T07:11:26.479Z,26.16
2018-12-15T07:14:06.630Z,26.29
2018-12-15T07:16:47.099Z,26.11
2018-12-15T07:19:28.104Z,26.04
2018-12-15T07:22:08.731Z,26.14
2018-12-15T07:24:49.391Z,26.09
2018-12-15T07:27:29.624Z,26.05
2018-12-15T07:30:09.915Z,25.90
2018-12-15T07:32:50.487Z,25.92
2018-12-15T07:35:30.734Z,25.84
2018-12-15T07:38:11.083Z,25.75
2018-12-15T07:40:51.428Z,25.82
2018-12-15T07:43:31.912Z,25.81
2018-12-15T07:46:12.384Z,26.00
2018-12-15T07:48:52.953Z,26.10
2018-12-15T07:51:34.034Z,26.12
2018-12-15T07:54:14.231Z,26.06
2018-12-15T07:56:54.549Z,26.10
2018-12-15T07:59:34.820Z,26.18
2018-12-15T08:02:15.234Z,26.14
2018-12-15T08:04:55.467Z,26.22
2018-12-15T08:07:36.937Z,26.16
2018-12-15T08:10:17.667Z,25.94
2018-12-15T08:12:58.011Z,25.94
2018-12-15T08:15:38.372Z,26.00
2018-12-15T08:18:19.227Z,25.99
2018-12-15T08:20:59.391Z,25.97
2018-12-15T08:23:39.878Z,26.02
2018-12-15T08:29:05.141Z,26.00
2018-12-15T08:31:45.754Z,26.07
2018-12-15T08:34:26.106Z,26.09
2018-12-15T08:37:06.535Z,26.04
2018-12-15T08:39:47.670Z,25.97
2018-12-15T08:42:28.332Z,25.97
2018-12-15T08:45:09.200Z,25.95
2018-12-15T08:47:49.540Z,26.06
2018-12-15T08:50:29.801Z,26.14
2018-12-15T08:53:10.775Z,26.31
2018-12-15T08:55:51.710Z,26.35
2018-12-15T08:58:32.014Z,26.23
2018-12-15T09:01:12.468Z,26.19
2018-12-15T09:03:53.040Z,26.24
2018-12-15T09:06:33.398Z,26.35
2018-12-15T09:09:14.167Z,26.36
2018-12-15T09:11:54.544Z,26.46
2018-12-15T09:14:34.677Z,26.36
2018-12-15T09:17:15.252Z,26.36
2018-12-15T09:19:56.201Z,26.29
2018-12-15T09:22:37.216Z,26.16
2018-12-15T09:25:17.421Z,26.05
2018-12-15T09:27:57.699Z,26.04
2018-12-15T09:30:37.856Z,25.92
2018-12-15T09:33:18.081Z,25.93
2018-12-15T09:35:58.494Z,25.82
2018-12-15T09:38:39.215Z,25.88
2018-12-15T09:41:19.701Z,25.77
2018-12-15T09:44:00.072Z,25.66
2018-12-15T09:46:40.992Z,25.64
2018-12-15T09:49:21.718Z,25.72
2018-12-15T09:52:02.074Z,25.80
2018-12-15T09:54:41.991Z,25.96
2018-12-15T09:57:22.616Z,25.94
2018-12-15T10:00:02.950Z,25.86
2018-12-15T10:02:43.024Z,25.83
2018-12-15T10:05:24.707Z,25.82
2018-12-15T10:08:04.736Z,25.68
2018-12-15T10:10:45.716Z,25.61
2018-12-15T10:16:12.225Z,25.21
2018-12-15T10:18:53.625Z,25.06
2018-12-15T10:21:33.917Z,24.89
2018-12-15T10:24:14.493Z,24.74
2018-12-15T10:26:54.381Z,24.52
2018-12-15T10:29:34.659Z,24.46
2018-12-15T10:32:14.828Z,24.35
2018-12-15T10:34:54.658Z,24.20
2018-12-15T10:37:34.695Z,24.11
2018-12-15T10:40:15.401Z,24.01
2018-12-15T10:42:55.760Z,23.97
2018-12-15T10:45:36.089Z,23.67
2018-12-15T10:48:16.654Z,23.64
2018-12-15T10:50:57.665Z,23.64
2018-12-15T10:53:37.830Z,23.58
2018-12-15T10:56:17.973Z,23.54
2018-12-15T10:58:57.941Z,23.48
2018-12-15T11:01:39.303Z,23.39
2018-12-15T11:04:19.413Z,23.21
2018-12-15T11:06:59.470Z,22.98
2018-12-15T11:09:40.189Z,22.73
2018-12-15T11:12:20.146Z,22.59
2018-12-15T11:15:00.470Z,22.46
2018-12-15T11:17:40.645Z,22.40
2018-12-15T11:20:21.016Z,22.39
2018-12-15T11:23:01.188Z,22.24
2018-12-15T11:25:42.155Z,21.80
2018-12-15T11:28:22.787Z,21.72
2018-12-15T11:31:02.627Z,21.89
2018-12-15T11:33:42.826Z,21.91
2018-12-15T11:36:23.239Z,21.91
2018-12-15T11:39:03.672Z,21.88
2018-12-15T11:41:44.621Z,21.84
2018-12-15T11:44:24.592Z,21.78
2018-12-15T11:47:04.398Z,21.50
2018-12-15T11:49:45.085Z,21.28
2018-12-15T11:52:27.715Z,21.37
2018-12-15T11:57:58.630Z,21.55
2018-12-15T12:00:39.139Z,21.38
2018-12-15T12:03:19.128Z,21.17
2018-12-15T12:05:59.588Z,20.94
2018-12-15T12:08:40.759Z,20.98
2018-12-15T12:11:21.949Z,21.05
2018-12-15T12:14:01.752Z,21.03
2018-12-15T12:16:42.012Z,20.98
2018-12-15T12:19:22.597Z,20.92
2018-12-15T12:22:02.759Z,20.97
2018-12-15T12:24:42.831Z,20.99
2018-12-15T12:27:23.713Z,21.03
2018-12-15T12:30:03.990Z,20.91
2018-12-15T12:32:44.190Z,20.81
2018-12-15T12:35:25.302Z,20.67
2018-12-15T12:38:05.512Z,20.58
2018-12-15T12:40:46.124Z,20.42
2018-12-15T12:43:26.500Z,20.28
2018-12-15T12:46:06.474Z,20.16
2018-12-15T12:48:46.751Z,20.19
2018-12-15T12:51:26.938Z,20.20
2018-12-15T12:54:07.494Z,20.39
2018-12-15T12:56:47.792Z,20.54
2018-12-15T12:59:28.984Z,20.49
2018-12-15T13:02:10.143Z,20.46
2018-12-15T13:04:50.778Z,20.38
2018-12-15T13:07:31.028Z,20.28
2018-12-15T13:10:11.561Z,20.14
2018-12-15T13:12:52.147Z,20.11
2018-12-15T13:15:32.298Z,20.16
2018-12-15T13:18:12.877Z,20.18
2018-12-15T13:20:52.901Z,20.16
2018-12-15T13:23:33.412Z,20.16
2018-12-15T13:26:14.031Z,20.22
2018-12-15T13:28:54.538Z,20.24
2018-12-15T13:31:34.544Z,20.26
2018-12-15T13:34:14.669Z,20.25
2018-12-15T13:36:54.979Z,20.11
2018-12-15T13:39:35.366Z,20.06
2018-12-15T13:42:15.816Z,19.91
2018-12-15T13:44:57.303Z,20.09
2018-12-15T13:47:43.880Z,20.04
2018-12-15T13:50:24.577Z,20.02
2018-12-15T13:53:05.974Z,19.96
2018-12-15T13:55:47.238Z,19.95
2018-12-15T13:58:28.508Z,19.95
2018-12-15T14:01:10.430Z,19.90
2018-12-15T14:12:20.067Z,19.98
2018-12-15T14:15:15.819Z,19.89
2018-12-15T14:20:44.674Z,19.82
2018-12-15T14:23:29.470Z,19.81
2018-12-15T14:26:12.471Z,19.95
2018-12-15T14:31:45.961Z,19.82
2018-12-15T14:34:26.708Z,19.71
2018-12-15T14:37:07.517Z,19.68
2018-12-15T14:39:47.904Z,19.59
2018-12-15T14:42:28.352Z,19.57
2018-12-15T14:45:08.627Z,19.56
2018-12-15T14:47:49.146Z,19.56
2018-12-15T14:50:30.396Z,19.61
2018-12-15T14:53:11.549Z,19.65
2018-12-15T14:55:52.426Z,19.61
2018-12-15T14:58:32.267Z,19.56
2018-12-15T15:01:13.205Z,19.47
2018-12-15T15:03:52.998Z,19.63
2018-12-15T15:06:34.016Z,19.54
2018-12-15T15:09:13.987Z,19.42
2018-12-15T15:11:54.079Z,19.34
2018-12-15T15:14:35.236Z,19.31
2018-12-15T15:17:15.752Z,19.35
2018-12-15T15:19:56.901Z,19.37
2018-12-15T15:22:37.781Z,19.40
2018-12-15T15:25:18.764Z,19.41
2018-12-15T15:27:59.854Z,19.51
2018-12-15T15:30:41.016Z,19.47
2018-12-15T15:33:21.680Z,19.48
2018-12-15T15:36:02.660Z,19.45
2018-12-15T15:38:43.326Z,19.37
2018-12-15T15:41:24.494Z,19.09
2018-12-15T15:44:05.788Z,18.93
2018-12-15T15:46:46.791Z,18.88
2018-12-15T15:49:27.839Z,18.76
2018-12-15T15:52:09.138Z,18.69
2018-12-15T15:54:50.284Z,18.73
2018-12-15T15:57:30.781Z,18.83
2018-12-15T16:00:11.937Z,18.90
2018-12-15T16:05:36.034Z,18.94
2018-12-15T16:08:16.997Z,18.97
2018-12-15T16:10:57.982Z,18.98
2018-12-15T16:13:39.189Z,19.01
2018-12-15T16:16:20.472Z,19.04
2018-12-15T16:19:01.215Z,19.07
2018-12-15T16:21:42.691Z,19.12
2018-12-15T16:24:23.156Z,19.19
2018-12-15T16:27:07.226Z,19.23
2018-12-15T16:29:48.578Z,19.28
2018-12-15T16:32:29.591Z,19.28
2018-12-15T16:35:10.837Z,19.27
2018-12-15T16:37:51.406Z,19.30
2018-12-15T16:40:32.324Z,19.28
2018-12-15T16:43:13.597Z,19.27
2018-12-15T16:45:54.633Z,19.23
2018-12-15T16:48:35.867Z,19.22
2018-12-15T16:51:16.890Z,19.24
2018-12-15T16:53:58.116Z,19.26
2018-12-15T16:56:39.693Z,19.32
2018-12-15T16:59:20.335Z,19.33
2018-12-15T17:02:01.163Z,19.32
2018-12-15T17:04:42.352Z,19.30
2018-12-15T17:07:23.137Z,19.33
2018-12-15T17:10:03.691Z,19.33
2018-12-15T17:12:44.876Z,19.29
2018-12-15T17:15:26.393Z,19.33
2018-12-15T17:18:07.362Z,19.30
2018-12-15T17:20:48.730Z,19.42
2018-12-15T17:23:29.699Z,19.45
2018-12-15T17:26:10.555Z,19.38
2018-12-15T17:28:51.537Z,19.31
2018-12-15T17:31:32.203Z,19.24
2018-12-15T17:34:13.442Z,19.18
2018-12-15T17:36:54.723Z,19.14
2018-12-15T17:39:35.324Z,19.31
2018-12-15T17:42:16.674Z,19.30
2018-12-15T17:44:58.045Z,19.20
2018-12-15T17:47:38.952Z,19.07
2018-12-15T17:50:19.941Z,18.95
2018-12-15T17:53:00.825Z,18.96
2018-12-15T17:55:41.891Z,19.06
2018-12-15T17:58:23.466Z,19.25
2018-12-15T18:01:04.153Z,19.19
2018-12-15T18:03:45.224Z,19.21
2018-12-15T18:06:26.289Z,19.21
2018-12-15T18:09:07.265Z,19.16
2018-12-15T18:22:57.343Z,19.06
2018-12-15T18:25:38.580Z,19.10
2018-12-15T18:28:19.252Z,19.07
2018-12-15T18:31:00.715Z,19.09
2018-12-15T18:33:42.092Z,19.21
2018-12-15T18:36:22.782Z,19.20
2018-12-15T18:39:03.448Z,19.15
2018-12-15T18:41:44.335Z,19.14
2018-12-15T18:44:25.278Z,19.14
2018-12-15T18:47:06.563Z,19.13
2018-12-15T18:49:47.353Z,19.07
2018-12-15T18:52:28.802Z,19.10
2018-12-15T18:55:09.748Z,19.11
2018-12-15T18:57:50.784Z,19.20
2018-12-15T19:00:31.703Z,19.14
2018-12-15T19:03:12.991Z,19.08
2018-12-15T19:05:53.394Z,19.16
2018-12-15T19:08:34.368Z,19.19
2018-12-15T19:11:15.656Z,19.19
2018-12-15T19:13:56.496Z,19.11
2018-12-15T19:16:37.496Z,19.15
2018-12-15T19:19:18.410Z,19.18
2018-12-15T19:21:59.990Z,19.18
2018-12-15T19:24:41.274Z,19.20
2018-12-15T19:27:22.583Z,19.15
2018-12-15T19:30:03.291Z,19.19
2018-12-15T19:32:44.181Z,19.16
2018-12-15T19:35:25.129Z,19.13
2018-12-15T19:38:05.761Z,19.20
2018-12-15T19:40:46.711Z,19.22
2018-12-15T19:43:27.990Z,19.27
2018-12-15T19:46:09.131Z,19.38
2018-12-15T19:48:50.231Z,19.41
2018-12-15T19:51:31.271Z,19.38
2018-12-15T19:54:12.550Z,19.39
2018-12-15T19:56:53.445Z,19.39
2018-12-15T19:59:34.202Z,19.47
2018-12-15T20:02:15.355Z,19.52
2018-12-15T20:04:56.320Z,19.65
2018-12-15T20:07:39.952Z,19.72
2018-12-15T20:10:20.816Z,19.69
2018-12-15T20:13:01.938Z,19.62
2018-12-15T20:15:43.192Z,19.52
2018-12-15T20:18:24.636Z,19.54
2018-12-15T20:21:05.940Z,19.62
2018-12-15T20:23:47.198Z,19.69
2018-12-15T20:26:27.712Z,19.70
2018-12-15T20:29:08.797Z,19.62
2018-12-15T20:31:49.773Z,19.59
2018-12-15T20:34:30.703Z,19.50
2018-12-15T20:37:11.688Z,19.57
2018-12-15T20:39:52.707Z,19.64
2018-12-15T20:42:34.259Z,19.71
2018-12-15T20:45:15.191Z,19.72
2018-12-15T20:47:56.540Z,19.77
2018-12-15T20:50:37.124Z,19.94
2018-12-15T20:53:17.868Z,19.95
2018-12-15T20:55:58.857Z,19.82
2018-12-15T20:58:40.002Z,19.79
2018-12-15T21:01:20.995Z,19.85
2018-12-15T21:04:02.276Z,19.74
2018-12-15T21:06:43.535Z,19.87
2018-12-15T21:09:24.475Z,19.85
2018-12-15T21:12:05.762Z,19.86
2018-12-15T21:14:46.405Z,19.78
2018-12-15T21:17:27.367Z,19.77
2018-12-15T21:20:08.713Z,19.76
2018-12-15T21:22:50.259Z,19.88
2018-12-15T21:25:30.997Z,19.96
2018-12-15T21:28:11.862Z,19.98
2018-12-15T21:30:52.832Z,19.96
2018-12-15T21:33:33.773Z,19.96
2018-12-15T21:36:15.079Z,19.94
2018-12-15T21:38:55.743Z,19.99
2018-12-15T21:41:36.638Z,19.97
2018-12-15T21:44:17.707Z,20.06
2018-12-15T21:46:58.601Z,20.02
2018-12-15T21:49:39.680Z,20.13
2018-12-15T21:52:20.854Z,20.15
2018-12-15T21:55:01.790Z,20.06
2018-12-15T21:57:43.079Z,20.09
2018-12-15T22:00:23.841Z,19.97
2018-12-15T22:03:04.734Z,20.01
2018-12-15T22:05:45.606Z,19.98
2018-12-15T22:08:26.562Z,20.03
2018-12-15T22:11:07.237Z,19.95
2018-12-15T22:13:47.655Z,19.96
2018-12-15T22:16:28.789Z,19.87
2018-12-15T22:19:09.843Z,19.82
2018-12-15T22:21:50.725Z,19.79
2018-12-15T22:24:31.678Z,19.74
2018-12-15T22:27:12.672Z,19.74
2018-12-15T22:29:53.641Z,19.76
2018-12-15T22:32:34.558Z,19.90
2018-12-15T22:35:15.866Z,20.04
2018-12-15T22:37:56.813Z,20.03
2018-12-15T22:40:37.757Z,19.98
2018-12-15T22:43:18.415Z,20.07
2018-12-15T22:45:59.693Z,20.18
2018-12-15T22:48:40.808Z,20.21
2018-12-15T22:51:22.065Z,20.19
2018-12-15T22:54:03.525Z,20.15
2018-12-15T22:56:44.471Z,20.18
2018-12-15T22:59:25.378Z,20.33
2018-12-15T23:02:05.893Z,20.41
2018-12-15T23:04:47.112Z,20.42
2018-12-15T23:07:27.997Z,20.26
2018-12-15T23:10:08.750Z,20.14
2018-12-15T23:12:49.283Z,20.08
2018-12-15T23:15:29.992Z,19.98
2018-12-15T23:18:10.955Z,19.89
2018-12-15T23:20:51.525Z,19.84
2018-12-15T23:23:32.640Z,19.90
2018-12-15T23:26:14.221Z,19.92
2018-12-15T23:28:55.029Z,20.02
2018-12-15T23:31:36.023Z,19.92
2018-12-15T23:34:16.491Z,19.87
2018-12-15T23:36:57.392Z,19.93
2018-12-15T23:39:38.058Z,19.97
2018-12-15T23:42:18.690Z,19.87
2018-12-15T23:44:59.487Z,19.94
2018-12-15T23:47:40.144Z,19.96
2018-12-15T23:50:21.202Z,19.86
2018-12-15T23:53:01.460Z,19.90
2018-12-15T23:55:41.609Z,19.87
2018-12-15T23:58:22.690Z,19.84
